Time;durP1;ratioP1;P1;durP2;ratioP2;P2;SDS_P1;SDS_P2;PMS_P1;PMS_P2;Temp;Humidity;BMP_temperature;BMP_pressure;BME280_temperature;BME280_humidity;BME280_pressure;Samples;Min_cycle;Max_cycle;Signal;HPM_P1;HPM_P2
2022/12/13 00:00:02;;;;;;;9.73;9.10;;;;;;;0.47;62.96;101119.47;5016675;28;20038;-75
2022/12/13 00:02:28;;;;;;;11.03;10.13;;;;;;;0.46;62.69;101120.50;5016470;28;20030;-74
2022/12/13 00:04:53;;;;;;;9.50;8.80;;;;;;;0.46;62.85;101123.16;5016943;28;20145;-74
2022/12/13 00:07:18;;;;;;;9.77;9.18;;;;;;;0.43;62.79;101119.81;5031843;28;20030;-75
2022/12/13 00:09:44;;;;;;;10.63;9.68;;;;;;;0.44;62.72;101115.31;5016673;28;20030;-74
2022/12/13 00:12:09;;;;;;;11.07;10.25;;;;;;;0.42;62.81;101118.13;5015406;28;20038;-74
2022/12/13 00:14:35;;;;;;;18.65;10.15;;;;;;;0.41;62.90;101113.84;5016350;28;20112;-74
2022/12/13 00:17:00;;;;;;;9.95;9.15;;;;;;;0.41;62.55;101105.03;5016564;28;20030;-73
2022/12/13 00:19:25;;;;;;;8.77;8.18;;;;;;;0.40;63.09;101108.66;5017032;28;20378;-74
2022/12/13 00:21:51;;;;;;;11.30;10.30;;;;;;;0.39;63.04;101110.50;5014653;28;20054;-74
2022/12/13 00:24:16;;;;;;;10.70;9.80;;;;;;;0.39;62.85;101113.16;5015146;28;20057;-74
2022/12/13 00:26:41;;;;;;;11.45;10.45;;;;;;;0.37;62.91;101109.00;5015199;28;20103;-74
2022/12/13 00:29:07;;;;;;;11.80;10.77;;;;;;;0.37;62.54;101112.50;5016815;28;20038;-74
2022/12/13 00:31:32;;;;;;;10.18;9.38;;;;;;;0.36;62.79;101116.16;5016766;28;20442;-74
2022/12/13 00:33:58;;;;;;;8.10;7.50;;;;;;;0.36;62.84;101107.38;5016153;28;20617;-75
2022/12/13 00:36:24;;;;;;;11.55;10.48;;;;;;;0.35;62.90;101098.56;5016213;28;20034;-74
2022/12/13 00:38:59;;;;;;;15.32;12.15;;;;;;;0.34;62.47;101104.03;5031272;28;20385;-73
2022/12/13 00:41:30;;;;;;;9.95;9.23;;;;;;;0.32;62.50;101095.41;5016064;28;20052;-73
2022/12/13 00:43:56;;;;;;;9.60;8.88;;;;;;;0.33;62.57;101102.38;5016380;28;20123;-74
2022/12/13 00:46:21;;;;;;;10.43;9.63;;;;;;;0.31;62.58;101097.22;5014897;28;20419;-74
2022/12/13 00:48:51;;;;;;;11.30;10.35;;;;;;;0.31;62.44;101089.25;5031319;28;20405;-74
2022/12/13 00:51:17;;;;;;;10.88;10.18;;;;;;;0.30;62.78;101098.22;5015943;28;20048;-74
2022/12/13 00:53:43;;;;;;;12.40;11.32;;;;;;;0.29;62.82;101088.59;5015130;28;20030;-73
2022/12/13 00:56:14;;;;;;;7.63;7.10;;;;;;;0.29;62.64;101090.44;5015686;28;20046;-74
2022/12/13 00:58:40;;;;;;;11.55;10.73;;;;;;;0.29;62.90;101093.09;5015747;28;20050;-72
2022/12/13 01:01:08;;;;;;;10.10;9.40;;;;;;;0.27;62.57;101089.75;5015526;28;20085;-73
2022/12/13 01:03:34;;;;;;;10.38;9.48;;;;;;;0.28;62.73;101091.41;5016487;28;20026;-73
2022/12/13 01:05:59;;;;;;;11.53;9.67;;;;;;;0.26;62.44;101078.31;5015925;28;20037;-73
2022/12/13 01:08:26;;;;;;;11.20;10.27;;;;;;;0.25;62.32;101089.09;5016220;28;20029;-73
2022/12/13 01:10:52;;;;;;;15.70;10.70;;;;;;;0.24;62.75;101082.94;4998129;28;20072;-78
2022/12/13 01:13:18;;;;;;;9.45;8.75;;;;;;;0.24;62.79;101087.44;5015591;28;20447;-73
2022/12/13 01:15:46;;;;;;;11.32;10.35;;;;;;;0.22;62.65;101076.97;5016014;28;20451;-73
2022/12/13 01:18:13;;;;;;;11.30;10.23;;;;;;;0.20;62.44;101078.94;5015544;28;20029;-73
2022/12/13 01:20:39;;;;;;;11.15;10.35;;;;;;;0.21;62.27;101073.47;5015664;28;20113;-73
2022/12/13 01:23:05;;;;;;;10.70;9.82;;;;;;;0.19;62.75;101078.13;5015093;28;20064;-72
2022/12/13 01:25:32;;;;;;;10.45;9.77;;;;;;;0.19;62.72;101074.66;5015424;28;20113;-77
2022/12/13 01:27:58;;;;;;;11.75;10.25;;;;;;;0.17;62.61;101076.63;5015470;28;20025;-75
2022/12/13 01:30:23;;;;;;;9.50;8.80;;;;;;;0.16;62.59;101070.50;5015210;28;20489;-75
2022/12/13 01:32:49;;;;;;;12.95;11.77;;;;;;;0.16;62.33;101075.81;5015168;28;20030;-73
2022/12/13 01:35:15;;;;;;;11.53;10.57;;;;;;;0.16;62.51;101080.31;5015530;28;20533;-74
2022/12/13 01:37:40;;;;;;;9.17;8.47;;;;;;;0.15;62.27;101078.63;5015169;28;20036;-74
2022/12/13 01:40:06;;;;;;;9.73;9.13;;;;;;;0.15;62.48;101083.94;5015006;28;20026;-74
2022/12/13 01:42:31;;;;;;;8.65;8.10;;;;;;;0.12;62.24;101076.31;5015208;28;20041;-80
2022/12/13 01:45:02;;;;;;;11.17;10.17;;;;;;;0.13;62.55;101077.97;5015306;28;20034;-77
2022/12/13 01:48:01;;;;;;;8.30;7.70;;;;;;;0.12;62.16;101078.97;5015207;28;20507;-73
2022/12/13 01:50:33;;;;;;;10.48;9.63;;;;;;;0.11;62.32;101074.66;5014507;28;20073;-74
2022/12/13 01:53:00;;;;;;;10.30;9.43;;;;;;;0.09;62.52;101074.81;5015532;28;20030;-75
2022/12/13 01:55:29;;;;;;;8.93;8.30;;;;;;;0.09;62.44;101079.28;5015073;28;20481;-76
2022/12/13 01:58:00;;;;;;;11.60;10.57;;;;;;;0.07;62.49;101074.13;5014660;28;20037;-73
2022/12/13 02:00:26;;;;;;;9.13;8.43;;;;;;;0.07;62.26;101075.97;5014966;28;20140;-73
2022/12/13 02:02:52;;;;;;;10.73;9.83;;;;;;;0.06;62.47;101079.63;5014686;28;20038;-74
2022/12/13 02:05:33;;;;;;;8.83;8.23;;;;;;;0.06;62.51;101085.78;5014596;28;20112;-76
2022/12/13 02:08:00;;;;;;;11.27;10.23;;;;;;;0.05;62.48;101085.94;5015211;28;20022;-73
2022/12/13 02:10:27;;;;;;;9.83;9.13;;;;;;;0.04;62.50;101076.31;5014706;28;20185;-75
2022/12/13 02:12:52;;;;;;;11.27;10.33;;;;;;;0.03;62.62;101086.09;5013638;28;20041;-72
2022/12/13 02:15:19;;;;;;;9.17;8.53;;;;;;;0.03;62.57;101077.31;5013989;28;20034;-73
2022/12/13 02:18:11;;;;;;;10.23;9.50;;;;;;;0.02;62.12;101080.94;5014429;28;20537;-73
2022/12/13 02:20:39;;;;;;;9.40;8.80;;;;;;;0.02;62.12;101078.28;5014511;28;20033;-73
2022/12/13 02:23:29;;;;;;;8.85;8.25;;;;;;;0.01;62.50;101076.66;5014803;28;20169;-75
2022/12/13 02:26:01;;;;;;;10.30;9.40;;;;;;;-0.01;62.11;101076.78;5029441;28;20030;-76
2022/12/13 02:28:50;;;;;;;12.10;9.57;;;;;;;-0.02;62.43;101072.50;5014488;28;20022;-75
2022/12/13 02:31:23;;;;;;;9.23;8.57;;;;;;;-0.03;62.29;101065.50;5014292;28;20038;-73
2022/12/13 02:34:25;;;;;;;8.63;8.03;;;;;;;-0.04;62.38;101077.13;5014647;28;20109;-77
2022/12/13 02:37:06;;;;;;;10.53;9.63;;;;;;;-0.05;62.13;101070.16;5013472;28;20034;-74
2022/12/13 02:39:35;;;;;;;8.97;8.37;;;;;;;-0.07;62.34;101065.03;5014539;28;20462;-74
2022/12/13 02:42:16;;;;;;;12.15;11.00;;;;;;;-0.07;62.42;101057.06;5014235;28;20044;-76
2022/12/13 02:44:50;;;;;;;9.27;8.53;;;;;;;-0.07;62.19;101059.72;5012619;28;20463;-73
2022/12/13 02:47:20;;;;;;;11.03;10.20;;;;;;;-0.08;62.34;101051.91;5014071;28;20030;-73
2022/12/13 02:49:49;;;;;;;9.67;9.00;;;;;;;-0.09;62.22;101053.72;5014140;28;20442;-78
2022/12/13 02:52:17;;;;;;;;;;;;;;;-0.10;62.12;101054.72;5014437;28;20030;-74
2022/12/13 02:54:42;;;;;;;10.43;9.47;;;;;;;-0.11;62.34;101049.56;5045367;28;19909;-76
2022/12/13 02:57:26;;;;;;;9.50;8.70;;;;;;;-0.13;62.10;101049.72;5012735;28;20040;-75
2022/12/13 02:59:52;;;;;;;9.97;9.27;;;;;;;-0.13;62.31;101054.22;5013469;28;20061;-73
2022/12/13 03:02:27;;;;;;;8.87;8.33;;;;;;;-0.14;62.01;101053.38;5013702;28;20474;-75
2022/12/13 03:08:19;;;;;;;12.03;10.83;;;;;;;-0.15;62.25;101049.09;5013581;28;20509;-75
2022/12/13 03:11:08;;;;;;;;;;;;;;;-0.17;62.28;101058.22;5014196;28;20120;-73
2022/12/13 03:13:59;;;;;;;8.38;7.78;;;;;;;-0.19;62.24;101049.56;5042118;28;19925;-75
2022/12/13 03:16:42;;;;;;;14.43;11.97;;;;;;;-0.20;62.00;101050.56;5013587;28;20029;-74
2022/12/13 03:19:10;;;;;;;12.97;11.80;;;;;;;-0.21;62.06;101052.38;5013149;28;20108;-73
2022/12/13 03:21:48;;;;;;;8.50;7.90;;;;;;;-0.22;62.05;101046.25;5013533;28;20492;-76
2022/12/13 03:24:19;;;;;;;10.33;9.43;;;;;;;-0.22;62.12;101043.59;5013316;28;20433;-77
2022/12/13 03:26:45;;;;;;;10.57;9.70;;;;;;;-0.23;62.08;101041.09;5013124;28;20478;-73
2022/12/13 03:29:10;;;;;;;14.00;12.67;;;;;;;-0.23;62.52;101044.59;5013832;28;20037;-74
2022/12/13 03:31:35;;;;;;;9.80;9.20;;;;;;;-0.23;62.02;101051.72;5013250;28;20040;-75
2022/12/13 03:34:01;;;;;;;11.27;10.13;;;;;;;-0.23;62.63;101049.06;5013493;28;20041;-74
2022/12/13 03:36:26;;;;;;;11.13;10.33;;;;;;;-0.24;62.13;101050.88;5013247;28;20547;-74
2022/12/13 03:38:53;;;;;;;10.03;9.33;;;;;;;-0.23;62.06;101049.91;5013615;28;20037;-74
2022/12/13 03:41:22;;;;;;;9.67;9.03;;;;;;;-0.25;62.13;101043.94;5013465;28;20030;-77
2022/12/13 03:43:47;;;;;;;;;;;;;;;-0.25;62.32;101043.09;5013520;28;20029;-75
2022/12/13 03:46:12;;;;;;;10.77;9.77;;;;;;;-0.27;62.43;101048.56;5012999;28;19917;-75
2022/12/13 03:48:38;;;;;;;15.73;9.37;;;;;;;-0.28;62.48;101046.06;5013479;28;20037;-75
2022/12/13 03:51:04;;;;;;;9.90;9.03;;;;;;;-0.28;62.21;101043.41;5012323;28;20045;-76
2022/12/13 03:53:30;;;;;;;12.57;11.50;;;;;;;-0.30;62.38;101040.94;5013155;28;20042;-74
2022/12/13 03:55:55;;;;;;;9.70;8.97;;;;;;;-0.30;62.26;101032.16;5012941;28;20041;-74
2022/12/13 03:58:21;;;;;;;10.57;9.87;;;;;;;-0.29;62.31;101039.13;5013167;28;20411;-78
2022/12/13 04:00:46;;;;;;;9.27;8.57;;;;;;;-0.30;62.04;101045.44;5028300;28;20117;-74
2022/12/13 04:03:12;;;;;;;11.73;10.77;;;;;;;-0.31;62.58;101041.09;5013058;28;20029;-75
2022/12/13 04:05:37;;;;;;;8.90;7.77;;;;;;;-0.32;62.05;101042.94;5012953;28;20029;-73
2022/12/13 04:08:03;;;;;;;11.13;10.13;;;;;;;-0.32;62.34;101034.13;5013130;28;20034;-73
2022/12/13 04:10:29;;;;;;;10.77;9.70;;;;;;;-0.33;62.44;101037.78;5012715;28;20482;-73
2022/12/13 04:15:39;;;;;;;10.10;9.23;;;;;;;-0.34;62.12;101033.47;5013432;28;20092;-71
2022/12/13 04:18:04;;;;;;;12.87;11.67;;;;;;;-0.35;62.45;101034.44;5012763;28;20026;-71
2022/12/13 04:20:30;;;;;;;8.90;8.20;;;;;;;-0.35;62.27;101034.44;5012798;28;20026;-71
2022/12/13 04:22:55;;;;;;;9.73;9.07;;;;;;;-0.36;62.47;101035.44;5012420;28;20058;-73
2022/12/13 04:25:21;;;;;;;8.50;7.93;;;;;;;-0.37;62.44;101033.81;5012684;28;20509;-74
2022/12/13 04:27:47;;;;;;;8.93;8.23;;;;;;;-0.38;62.43;101029.47;5012566;28;20096;-73
2022/12/13 04:30:12;;;;;;;12.03;10.90;;;;;;;-0.38;62.61;101030.28;5012890;28;20034;-73
2022/12/13 04:32:38;;;;;;;11.10;10.00;;;;;;;-0.40;62.27;101023.47;5012707;28;20228;-72
2022/12/13 04:35:04;;;;;;;10.90;9.93;;;;;;;-0.40;62.23;101024.34;5012422;28;20026;-72
2022/12/13 04:37:29;;;;;;;9.43;8.73;;;;;;;-0.41;62.26;101025.31;5015482;28;20469;-75
2022/12/13 04:39:55;;;;;;;10.53;9.73;;;;;;;-0.40;62.09;101018.19;5016044;28;20025;-71
2022/12/13 04:42:20;;;;;;;10.70;9.60;;;;;;;-0.41;62.35;101019.19;5016432;28;20505;-73
2022/12/13 04:44:45;;;;;;;11.27;10.27;;;;;;;-0.41;62.28;101019.19;5015975;28;20030;-74
2022/12/13 04:47:11;;;;;;;11.83;10.80;;;;;;;-0.42;62.20;101014.88;5016230;28;20398;-73
2022/12/13 04:49:36;;;;;;;11.17;10.27;;;;;;;-0.43;62.35;101019.34;4998515;28;20069;-73
2022/12/13 04:52:03;;;;;;;10.60;9.80;;;;;;;-0.44;62.18;101023.81;5015668;28;20044;-72
2022/12/13 04:54:31;;;;;;;10.43;9.67;;;;;;;-0.44;62.47;101021.16;5015964;28;20041;-73
2022/12/13 04:56:56;;;;;;;9.50;8.82;;;;;;;-0.45;62.08;101024.81;5015878;28;20030;-73
2022/12/13 04:59:22;;;;;;;11.00;10.07;;;;;;;-0.46;62.51;101017.84;5015454;28;20128;-73
2022/12/13 05:01:47;;;;;;;9.33;8.63;;;;;;;-0.47;62.42;101016.19;5015633;28;20108;-73
2022/12/13 05:04:12;;;;;;;10.87;9.87;;;;;;;-0.47;62.40;101015.38;5015681;28;20459;-72
2022/12/13 05:06:38;;;;;;;9.80;9.10;;;;;;;-0.48;62.13;101016.34;5015782;28;20029;-73
2022/12/13 05:09:03;;;;;;;9.07;8.23;;;;;;;-0.49;62.10;101010.22;5015392;28;20037;-71
2022/12/13 05:11:29;;;;;;;10.10;9.27;;;;;;;-0.50;61.88;101003.25;5016155;28;20447;-72
2022/12/13 05:13:54;;;;;;;11.40;10.60;;;;;;;-0.50;62.10;100999.78;5014398;28;20046;-73
2022/12/13 05:16:19;;;;;;;9.60;8.80;;;;;;;-0.50;62.31;101000.59;5015610;28;20029;-71
2022/12/13 05:18:45;;;;;;;8.93;8.33;;;;;;;-0.50;62.07;101005.09;5015784;28;20030;-71
2022/12/13 05:21:11;;;;;;;14.73;12.10;;;;;;;-0.51;62.03;101001.59;5015642;28;20439;-71
2022/12/13 05:23:37;;;;;;;8.27;7.67;;;;;;;-0.52;61.99;101002.59;5015444;28;20045;-72
2022/12/13 05:26:03;;;;;;;10.07;9.30;;;;;;;-0.54;62.18;100999.25;5015306;28;20459;-72
2022/12/13 05:28:30;;;;;;;19.90;12.73;;;;;;;-0.53;62.09;100997.44;5014086;28;20087;-71
2022/12/13 05:30:58;;;;;;;8.97;8.37;;;;;;;-0.53;62.44;101006.25;5014048;28;20038;-72
2022/12/13 05:33:24;;;;;;;13.60;12.13;;;;;;;-0.54;62.12;100996.59;5015379;28;20446;-72
2022/12/13 05:35:50;;;;;;;10.20;9.40;;;;;;;-0.54;62.20;101003.75;5030461;28;20026;-73
2022/12/13 05:38:15;;;;;;;13.23;11.57;;;;;;;-0.55;61.95;100994.13;5015220;28;20121;-73
2022/12/13 05:40:41;;;;;;;9.40;8.70;;;;;;;-0.56;62.34;101000.41;5014185;28;20026;-73
2022/12/13 05:43:06;;;;;;;9.97;9.17;;;;;;;-0.56;62.01;101000.41;5015381;28;20034;-73
2022/12/13 05:45:32;;;;;;;8.63;8.00;;;;;;;-0.57;62.10;100991.63;5014926;28;20072;-73
2022/12/13 05:47:58;;;;;;;11.17;10.30;;;;;;;-0.58;62.10;100995.28;5014371;28;20053;-73
2022/12/13 05:50:23;;;;;;;12.63;11.40;;;;;;;-0.58;62.01;100994.44;5014889;28;20030;-72
2022/12/13 05:52:49;;;;;;;10.17;9.37;;;;;;;-0.59;62.10;100995.44;5015380;28;20054;-75
2022/12/13 05:55:14;;;;;;;11.33;9.63;;;;;;;-0.60;62.13;100993.81;5014978;28;20437;-71
2022/12/13 05:57:40;;;;;;;10.20;9.40;;;;;;;-0.60;61.90;100996.44;5015165;28;20028;-72
2022/12/13 06:00:07;;;;;;;9.60;8.90;;;;;;;-0.61;62.04;100992.13;5014426;28;20084;-73
2022/12/13 06:02:38;;;;;;;8.70;8.10;;;;;;;-0.62;62.29;101003.75;5014256;28;20029;-73
2022/12/13 06:05:04;;;;;;;8.00;7.50;;;;;;;-0.63;61.98;100994.09;5015164;28;20041;-74
2022/12/13 06:07:30;;;;;;;8.00;7.50;;;;;;;-0.64;62.29;100995.94;5014844;28;20429;-74
2022/12/13 06:09:55;;;;;;;10.23;9.43;;;;;;;-0.64;62.38;101003.06;5013309;28;20100;-73
2022/12/13 06:12:21;;;;;;;11.37;10.30;;;;;;;-0.64;61.92;101008.38;5014568;28;20037;-73
2022/12/13 06:14:46;;;;;;;8.83;8.07;;;;;;;-0.65;62.09;101010.19;5014879;28;20041;-73
2022/12/13 06:17:11;;;;;;;10.97;9.63;;;;;;;-0.67;62.27;101002.41;5014159;28;20114;-73
2022/12/13 06:19:37;;;;;;;7.83;7.30;;;;;;;-0.67;61.95;101005.03;5014496;28;20030;-73
2022/12/13 06:22:02;;;;;;;10.23;9.43;;;;;;;-0.67;62.19;101015.66;5012870;28;20046;-73
2022/12/13 06:24:27;;;;;;;12.03;10.80;;;;;;;-0.68;61.96;101011.34;5014242;28;20022;-72
2022/12/13 06:26:53;;;;;;;10.80;8.90;;;;;;;-0.68;62.02;101002.53;5015035;28;20379;-73
2022/12/13 06:29:20;;;;;;;10.93;9.83;;;;;;;-0.69;62.21;101006.19;5014358;28;20399;-73
2022/12/13 06:31:46;;;;;;;9.47;8.77;;;;;;;-0.70;62.21;100999.25;5014058;28;20053;-73
2022/12/13 06:34:12;;;;;;;7.70;7.20;;;;;;;-0.70;62.10;101012.50;5014984;28;20470;-71
2022/12/13 06:36:37;;;;;;;9.57;8.77;;;;;;;-0.72;62.16;101010.00;5014141;28;20030;-74
2022/12/13 06:39:04;;;;;;;8.53;8.00;;;;;;;-0.72;62.14;101003.88;5014092;28;20450;-73
2022/12/13 06:41:30;;;;;;;10.70;9.80;;;;;;;-0.72;62.14;101001.22;5013842;28;20379;-74
2022/12/13 06:43:55;;;;;;;9.90;9.10;;;;;;;-0.73;62.00;100996.91;5013708;28;20030;-74
2022/12/13 06:46:21;;;;;;;10.73;9.73;;;;;;;-0.74;62.26;100992.59;5013835;28;20029;-73
2022/12/13 06:48:46;;;;;;;8.77;8.10;;;;;;;-0.76;62.00;100983.97;5014163;28;20026;-75
2022/12/13 06:51:11;;;;;;;9.17;8.47;;;;;;;-0.77;62.05;100991.09;5013662;28;20056;-74
2022/12/13 06:53:38;;;;;;;9.57;8.87;;;;;;;-0.77;62.30;100988.44;5013718;28;20042;-73
2022/12/13 06:56:06;;;;;;;11.17;10.13;;;;;;;-0.77;61.86;100987.63;5013838;28;20112;-73
2022/12/13 06:58:32;;;;;;;10.47;9.37;;;;;;;-0.78;61.93;100983.28;5013928;28;20029;-75
2022/12/13 07:01:02;;;;;;;8.00;7.50;;;;;;;-0.79;62.16;100985.13;5013684;28;20386;-75
2022/12/13 07:03:28;;;;;;;9.67;8.87;;;;;;;-0.80;61.82;100985.31;5028914;28;20054;-73
2022/12/13 07:05:54;;;;;;;10.37;9.53;;;;;;;-0.80;61.75;100993.25;5028969;28;20383;-75
2022/12/13 07:08:19;;;;;;;10.53;8.90;;;;;;;-0.80;62.06;100986.13;5014008;28;20461;-72
2022/12/13 07:10:45;;;;;;;8.33;7.63;;;;;;;-0.81;62.09;100989.75;5014058;28;20037;-73
2022/12/13 07:13:11;;;;;;;9.70;8.90;;;;;;;-0.82;62.07;100989.94;5013685;28;20041;-74
2022/12/13 07:15:36;;;;;;;8.73;8.10;;;;;;;-0.83;62.04;100988.25;5014013;28;20057;-74
2022/12/13 07:18:02;;;;;;;8.60;8.00;;;;;;;-0.85;62.02;100985.78;5013614;28;20038;-73
2022/12/13 07:20:27;;;;;;;11.57;10.53;;;;;;;-0.85;62.29;100985.78;5013582;28;20112;-73
2022/12/13 07:22:55;;;;;;;9.40;8.80;;;;;;;-0.85;61.94;100992.91;5013408;28;20133;-75
2022/12/13 07:25:21;;;;;;;10.40;9.53;;;;;;;-0.88;61.73;100989.59;5013454;28;20029;-74
2022/12/13 07:27:47;;;;;;;8.53;7.93;;;;;;;-0.88;61.87;100984.28;5013485;28;20037;-75
2022/12/13 07:30:14;;;;;;;7.20;6.77;;;;;;;-0.88;61.94;100994.06;5013464;28;20112;-74
2022/12/13 07:32:39;;;;;;;8.43;7.83;;;;;;;-0.90;61.74;100996.88;5013535;28;20037;-73
2022/12/13 07:35:05;;;;;;;7.03;6.63;;;;;;;-0.90;62.09;100999.53;5013273;28;20041;-77
2022/12/13 07:37:30;;;;;;;10.57;9.67;;;;;;;-0.90;62.17;100988.09;5013434;28;20037;-75
2022/12/13 07:39:55;;;;;;;8.67;8.10;;;;;;;-0.91;62.08;100997.88;5013450;28;20069;-76
2022/12/13 07:42:21;;;;;;;10.03;8.73;;;;;;;-0.92;61.75;100996.19;5013510;28;20037;-73
2022/12/13 07:44:46;;;;;;;8.87;8.17;;;;;;;-0.92;61.92;101000.69;5028536;28;20451;-78
2022/12/13 07:47:11;;;;;;;9.93;9.13;;;;;;;-0.93;61.82;100999.84;5011939;28;20022;-76
2022/12/13 07:49:39;;;;;;;10.00;9.10;;;;;;;-0.94;61.80;100994.69;5013425;28;20029;-74
2022/12/13 07:52:08;;;;;;;8.73;8.07;;;;;;;-0.95;61.91;100995.69;5013362;28;20470;-75
2022/12/13 07:54:34;;;;;;;11.57;10.43;;;;;;;-0.95;61.98;100998.34;5013333;28;20030;-75
2022/12/13 07:56:59;;;;;;;13.63;12.63;;;;;;;-0.95;62.14;101001.00;5012236;28;20034;-75
2022/12/13 07:59:24;;;;;;;14.33;12.63;;;;;;;-0.95;62.08;101007.13;5013266;28;20026;-74
2022/12/13 08:01:50;;;;;;;9.07;8.37;;;;;;;-0.96;62.03;101000.19;5028331;28;20375;-75
2022/12/13 08:04:15;;;;;;;12.17;11.13;;;;;;;-0.97;61.85;100995.84;5013241;28;20440;-75
2022/12/13 08:06:40;;;;;;;11.60;10.63;;;;;;;-0.97;61.95;101000.31;5012984;28;20030;-74
2022/12/13 08:09:06;;;;;;;11.13;10.30;;;;;;;-0.98;62.02;100996.84;5013009;28;20033;-75
2022/12/13 08:11:31;;;;;;;13.27;12.13;;;;;;;-0.98;62.12;101003.97;5015110;28;20034;-74
2022/12/13 08:13:56;;;;;;;8.73;8.13;;;;;;;-0.99;62.10;101008.44;5017186;28;20053;-73
2022/12/13 08:16:22;;;;;;;8.90;8.27;;;;;;;-1.00;61.95;101004.13;5016970;28;20030;-72
2022/12/13 08:18:47;;;;;;;11.03;10.13;;;;;;;-1.01;62.06;101013.06;5016910;28;20038;-74
2022/12/13 08:21:13;;;;;;;10.47;9.73;;;;;;;-1.01;61.83;101017.53;5017017;28;20385;-74
2022/12/13 08:23:38;;;;;;;10.57;9.57;;;;;;;-1.02;61.79;101016.72;5017001;28;20060;-73
2022/12/13 08:26:04;;;;;;;9.10;8.43;;;;;;;-1.02;62.35;101010.59;5016429;28;20077;-73
2022/12/13 08:28:31;;;;;;;9.73;8.87;;;;;;;-1.03;62.01;101016.88;5016557;28;20037;-75
2022/12/13 08:31:10;;;;;;;13.53;11.93;;;;;;;-1.04;62.14;101018.69;5017053;28;20018;-76
2022/12/13 08:33:35;;;;;;;11.88;10.70;;;;;;;-1.04;61.93;101023.16;5017219;28;20121;-75
2022/12/13 08:36:09;;;;;;;9.67;8.83;;;;;;;-1.05;61.98;101011.75;5016383;28;20033;-74
2022/12/13 08:38:35;;;;;;;12.83;11.37;;;;;;;-1.06;61.77;101015.38;5016292;28;20041;-68
2022/12/13 08:41:00;;;;;;;11.10;10.10;;;;;;;-1.05;61.89;101016.22;5016836;28;20358;-73
2022/12/13 08:43:26;;;;;;;13.23;10.67;;;;;;;-1.05;62.00;101008.25;5015320;28;20038;-74
2022/12/13 08:45:51;;;;;;;12.33;11.07;;;;;;;-1.05;62.16;101011.75;5016163;28;20060;-75
2022/12/13 08:48:17;;;;;;;20.23;12.63;;;;;;;-1.07;62.14;101019.00;5016602;28;20469;-74
2022/12/13 08:50:42;;;;;;;19.93;13.70;;;;;;;-1.07;62.25;101026.16;5016245;28;20030;-74
2022/12/13 08:53:08;;;;;;;9.33;8.53;;;;;;;-1.08;62.09;101022.66;5015978;28;20038;-75
2022/12/13 08:55:33;;;;;;;17.50;12.43;;;;;;;-1.07;62.35;101023.50;5016197;28;20038;-73
2022/12/13 08:58:03;;;;;;;17.20;11.63;;;;;;;-1.09;62.26;101024.47;5014870;28;20058;-75
2022/12/13 09:00:28;;;;;;;19.80;11.60;;;;;;;-1.09;62.17;101021.00;5031265;28;20439;-73
2022/12/13 09:02:56;;;;;;;15.00;12.10;;;;;;;-1.09;62.10;101028.94;4998209;28;20065;-74
2022/12/13 09:05:21;;;;;;;11.03;10.10;;;;;;;-1.10;62.44;101033.41;5015954;28;20141;-74
2022/12/13 09:07:47;;;;;;;16.13;14.00;;;;;;;-1.11;62.47;101029.13;5015931;28;20450;-75
2022/12/13 09:10:12;;;;;;;10.23;9.40;;;;;;;-1.11;62.20;101033.56;5015893;28;20029;-74
2022/12/13 09:12:40;;;;;;;13.10;11.73;;;;;;;-1.12;62.00;101032.75;5016102;28;20033;-74
2022/12/13 09:15:06;;;;;;;14.35;11.63;;;;;;;-1.10;62.39;101035.25;5016057;28;20418;-77
2022/12/13 09:17:32;;;;;;;11.03;10.03;;;;;;;-1.12;62.10;101038.03;5015546;28;20497;-74
2022/12/13 09:19:57;;;;;;;10.90;9.73;;;;;;;-1.13;62.37;101044.34;5015722;28;20316;-75
2022/12/13 09:22:22;;;;;;;14.27;12.97;;;;;;;-1.12;62.23;101031.91;5014291;28;20042;-75
2022/12/13 09:24:48;;;;;;;12.10;10.80;;;;;;;-1.12;62.04;101029.25;5015269;28;20093;-74
2022/12/13 09:27:13;;;;;;;11.77;10.73;;;;;;;-1.13;62.35;101031.09;5015614;28;20393;-74
2022/12/13 09:29:38;;;;;;;15.17;10.67;;;;;;;-1.13;62.04;101027.63;5015539;28;20037;-74
2022/12/13 09:32:04;;;;;;;10.10;9.20;;;;;;;-1.13;62.22;101035.56;5015434;28;20109;-74
2022/12/13 09:34:31;;;;;;;12.23;10.80;;;;;;;-1.14;62.18;101026.75;5015284;28;20042;-73
2022/12/13 09:36:57;;;;;;;11.23;9.83;;;;;;;-1.14;62.41;101024.13;5014369;28;20033;-78
2022/12/13 09:39:22;;;;;;;12.40;11.10;;;;;;;-1.13;62.38;101019.66;5014506;28;20029;-79
2022/12/13 09:41:53;;;;;;;15.83;11.93;;;;;;;-1.12;62.42;101021.31;5014327;28;20090;-75
2022/12/13 09:44:23;;;;;;;17.00;13.13;;;;;;;-1.13;62.28;101022.31;5015133;28;20454;-79
2022/12/13 09:46:51;;;;;;;27.57;15.87;;;;;;;-1.11;62.20;101017.66;5014359;28;20037;-77
2022/12/13 09:49:38;;;;;;;8.63;8.03;;;;;;;-1.13;62.43;101020.50;5015412;28;20092;-78
2022/12/13 09:52:05;;;;;;;9.50;8.73;;;;;;;-1.13;62.51;101022.31;5015116;28;20048;-76
2022/12/13 09:54:32;;;;;;;8.87;8.20;;;;;;;-1.13;62.22;101019.66;5015039;28;20021;-77
2022/12/13 09:56:58;;;;;;;19.50;12.93;;;;;;;-1.14;62.54;101015.34;5014964;28;20034;-77
2022/12/13 09:59:35;;;;;;;15.60;9.40;;;;;;;-1.14;62.32;101010.03;5015009;28;20099;-76
2022/12/13 10:02:27;;;;;;;16.63;11.20;;;;;;;-1.13;62.62;101019.66;5014719;28;20508;-76
2022/12/13 10:04:57;;;;;;;10.00;9.00;;;;;;;-1.14;62.24;101021.47;5014565;28;20427;-76
2022/12/13 10:07:25;;;;;;;28.20;16.20;;;;;;;-1.14;62.28;101013.50;5014441;28;20520;-76
2022/12/13 10:10:00;;;;;;;12.98;11.52;;;;;;;-1.14;62.48;101010.84;5014586;28;20043;-77
2022/12/13 10:12:27;;;;;;;17.40;13.20;;;;;;;-1.13;62.47;101017.00;5014503;28;20393;-77
2022/12/13 10:14:59;;;;;;;17.87;16.03;;;;;;;-1.13;62.47;101007.22;5014487;28;20083;-75
2022/12/13 10:17:31;;;;;;;8.60;8.00;;;;;;;-1.13;62.66;101011.72;5014668;28;20037;-75
2022/12/13 10:19:56;;;;;;;9.13;8.43;;;;;;;-1.14;62.32;101018.00;5014745;28;20105;-77
2022/12/13 10:22:22;;;;;;;9.40;8.80;;;;;;;-1.14;62.66;101005.56;5014060;28;20472;-78
2022/12/13 10:25:04;;;;;;;14.70;11.97;;;;;;;-1.13;62.42;100998.47;5014265;28;20034;-75
2022/12/13 10:27:44;;;;;;;7.30;6.80;;;;;;;-1.13;62.47;100999.28;5014891;28;20444;-73
2022/12/13 10:30:23;;;;;;;9.87;9.07;;;;;;;-1.13;62.41;100991.34;5014522;28;20041;-74
2022/12/13 10:32:59;;;;;;;11.40;9.80;;;;;;;-1.11;62.57;100988.50;5014688;28;20113;-74
2022/12/13 10:35:31;;;;;;;13.70;9.30;;;;;;;-1.12;62.84;100992.97;5014688;28;20022;-76
2022/12/13 10:38:00;;;;;;;14.83;11.90;;;;;;;-1.13;62.89;100993.97;5014530;28;20025;-73
2022/12/13 10:40:39;;;;;;;11.95;9.77;;;;;;;-1.12;62.75;100985.03;5014672;28;20033;-74
2022/12/13 10:43:20;;;;;;;7.88;7.40;;;;;;;-1.11;62.84;100980.53;5014262;28;20026;-73
2022/12/13 10:45:55;;;;;;;13.17;11.03;;;;;;;-1.11;62.92;100986.72;5013991;28;20112;-75
2022/12/13 10:48:45;;;;;;;9.17;8.43;;;;;;;-1.10;62.82;100976.94;5014169;28;20038;-73
2022/12/13 10:51:14;;;;;;;11.20;10.20;;;;;;;-1.09;62.79;100975.91;5014512;28;20052;-74
2022/12/13 10:53:59;;;;;;;10.30;9.32;;;;;;;-1.09;62.58;100971.44;5014108;28;20025;-73
2022/12/13 10:56:54;;;;;;;10.60;9.80;;;;;;;-1.06;62.73;100964.16;5012587;28;20033;-74
2022/12/13 10:59:33;;;;;;;14.47;10.13;;;;;;;-1.07;62.90;100960.69;5014288;28;20050;-76
2022/12/13 11:02:00;;;;;;;20.83;13.75;;;;;;;-1.06;62.58;100957.03;5014180;28;20575;-74
2022/12/13 11:04:26;;;;;;;10.20;9.47;;;;;;;-1.05;62.73;100947.28;5013867;28;20104;-73
2022/12/13 11:06:52;;;;;;;14.97;10.13;;;;;;;-1.04;62.74;100955.06;5014057;28;20057;-72
2022/12/13 11:09:29;;;;;;;12.43;11.10;;;;;;;-1.03;62.61;100961.19;5013724;28;20033;-76
2022/12/13 11:11:58;;;;;;;16.33;13.53;;;;;;;-1.02;62.86;100954.91;5013988;28;20393;-74
2022/12/13 11:14:28;;;;;;;18.53;13.10;;;;;;;-1.01;62.81;100946.78;5013887;28;20048;-74
2022/12/13 11:16:56;;;;;;;12.00;10.90;;;;;;;-1.01;62.96;100952.06;5012370;28;20029;-74
2022/12/13 11:19:50;;;;;;;17.27;12.27;;;;;;;-0.99;62.83;100957.22;5014434;28;20065;-75
2022/12/13 11:22:23;;;;;;;11.93;10.83;;;;;;;-0.99;62.59;100951.94;5014183;28;20077;-74
2022/12/13 11:24:52;;;;;;;18.47;13.40;;;;;;;-0.99;62.81;100939.50;5013329;28;20055;-73
2022/12/13 11:27:32;;;;;;;;;;;;;;;-0.99;62.90;100933.38;5013982;28;20026;-73
2022/12/13 11:30:16;;;;;;;13.07;11.70;;;;;;;-0.98;62.43;100946.47;5013859;28;20344;-73